Time;durP1;ratioP1;P1;durP2;ratioP2;P2;SDS_P1;SDS_P2;PMS_P1;PMS_P2;Temp;Humidity;BMP_temperature;BMP_pressure;BME280_temperature;BME280_humidity;BME280_pressure;Samples;Min_cycle;Max_cycle;Signal;HPM_P1;HPM_P2
2023/12/13 00:01:29;;;;;;;39.83;18.00;;;;;;;;;;5090042;28;20052;-69
2023/12/13 00:03:55;;;;;;;43.15;17.65;;;;;;;;;;5090371;28;20451;-68
2023/12/13 00:06:21;;;;;;;41.65;18.08;;;;;;;;;;5073375;28;20046;-68
2023/12/13 00:08:47;;;;;;;32.47;17.20;;;;;;;;;;5090271;28;20040;-69
2023/12/13 00:11:13;;;;;;;33.92;15.48;;;;;;;;;;5090004;28;20131;-68
2023/12/13 00:13:40;;;;;;;36.17;16.25;;;;;;;;;;5090166;28;20443;-68
2023/12/13 00:16:06;;;;;;;25.85;13.60;;;16.60;99.90;;;;;;5073231;28;20040;-68
2023/12/13 00:18:32;;;;;;;29.45;14.88;;;16.50;99.90;;;;;;5091308;28;20040;-68
2023/12/13 00:20:58;;;;;;;27.98;14.93;;;;;;;;;;5089661;28;20101;-69
2023/12/13 00:23:24;;;;;;;30.40;14.18;;;;;;;;;;5090202;28;20040;-68
2023/12/13 00:25:49;;;;;;;34.05;15.23;;;16.80;99.90;;;;;;5073046;28;20051;-68
2023/12/13 00:28:15;;;;;;;31.13;15.20;;;16.80;99.90;;;;;;5090201;28;20079;-68
2023/12/13 00:30:41;;;;;;;37.28;15.88;;;;;;;;;;5089766;28;20495;-68
2023/12/13 00:33:06;;;;;;;27.70;13.70;;;;;;;;;;5089975;28;20135;-69
2023/12/13 00:35:32;;;;;;;32.20;15.38;;;;;;;;;;5090087;28;20044;-69
2023/12/13 00:37:58;;;;;;;31.95;15.15;;;;;;;;;;5091565;28;20120;-69
2023/12/13 00:40:24;;;;;;;27.90;14.38;;;;;;;;;;5089755;28;20040;-68
2023/12/13 00:42:50;;;;;;;30.63;14.80;;;17.00;99.90;;;;;;5090293;28;20044;-68
2023/12/13 00:45:16;;;;;;;31.10;14.20;;;17.10;99.90;;;;;;5089803;28;20051;-68
2023/12/13 00:58:50;;;;;;;36.75;16.73;;;16.80;99.90;;;;;;5091107;28;20071;-68
2023/12/13 01:01:16;;;;;;;29.88;14.43;;;17.20;99.90;;;;;;5072715;28;20065;-68
2023/12/13 01:03:42;;;;;;;35.20;18.08;;;16.80;99.90;;;;;;5072904;28;20036;-68
2023/12/13 01:06:09;;;;;;;41.33;19.13;;;;;;;;;;5091282;28;20039;-69
2023/12/13 01:08:38;;;;;;;39.40;18.65;;;17.20;99.90;;;;;;5093557;28;20044;-69
2023/12/13 01:11:11;;;;;;;34.78;17.05;;;;;;;;;;5076163;28;20040;-69
2023/12/13 01:13:37;;;;;;;37.40;17.10;;;;;;;;;;5093331;28;20036;-68
2023/12/13 01:16:03;;;;;;;34.30;17.83;;;;;;;;;;5093319;28;20441;-68
2023/12/13 01:18:29;;;;;;;41.90;19.38;;;17.10;99.90;;;;;;5093499;28;20525;-69
2023/12/13 01:20:56;;;;;;;40.08;18.33;;;;;;;;;;5092675;28;20119;-69
2023/12/13 01:23:21;;;;;;;31.80;16.25;;;17.10;99.90;;;;;;5076199;28;20085;-68
2023/12/13 01:25:47;;;;;;;43.10;19.23;;;17.30;99.90;;;;;;5092766;28;20429;-68
2023/12/13 01:28:13;;;;;;;38.90;18.17;;;;;;;;;;5093051;28;20097;-68
2023/12/13 01:30:38;;;;;;;36.90;17.50;;;16.90;99.90;;;;;;5094353;28;20248;-69
2023/12/13 01:33:04;;;;;;;33.95;17.98;;;17.10;99.90;;;;;;5094348;28;20036;-68
2023/12/13 01:35:29;;;;;;;43.88;18.90;;;16.90;99.90;;;;;;5092932;28;20109;-68
2023/12/13 01:37:55;;;;;;;38.63;17.67;;;;;;;;;;5092877;28;20043;-68
2023/12/13 01:40:21;;;;;;;38.60;17.98;;;;;;;;;;5092538;28;20044;-68
2023/12/13 01:42:47;;;;;;;42.22;18.85;;;;;;;;;;5092799;28;20078;-69
2023/12/13 01:45:13;;;;;;;36.45;17.52;;;;;;;;;;5092591;28;20078;-68
2023/12/13 01:47:40;;;;;;;46.13;21.50;;;;;;;;;;5092700;28;20043;-69
2023/12/13 01:50:07;;;;;;;41.35;18.90;;;;;;;;;;5092273;28;20126;-69
2023/12/13 01:52:33;;;;;;;41.75;19.75;;;;;;;;;;5092543;28;20419;-68
2023/12/13 01:54:59;;;;;;;47.92;21.58;;;;;;;;;;5092398;28;20054;-68
2023/12/13 01:57:25;;;;;;;33.20;17.83;;;16.90;99.90;;;;;;5092489;28;20127;-68
2023/12/13 01:59:51;;;;;;;39.72;18.65;;;16.90;99.90;;;;;;5075237;28;20044;-69
2023/12/13 02:02:17;;;;;;;42.95;18.30;;;17.50;99.90;;;;;;5092391;28;20530;-68
2023/12/13 02:04:43;;;;;;;39.95;18.67;;;17.00;99.90;;;;;;5092115;28;20120;-69
2023/12/13 02:07:09;;;;;;;36.90;17.55;;;17.60;99.90;;;;;;5092162;28;20044;-69
2023/12/13 02:09:35;;;;;;;48.40;20.77;;;17.20;99.90;;;;;;5092262;28;20044;-69
2023/12/13 02:12:01;;;;;;;49.22;20.67;;;;;;;;;;5092475;28;20036;-69
2023/12/13 02:14:27;;;;;;;48.97;20.83;;;;;;;;;;5092055;28;20036;-68
2023/12/13 02:16:53;;;;;;;39.22;18.58;;;;;;;;;;5091114;28;20051;-69
2023/12/13 02:19:19;;;;;;;43.95;19.58;;;;;;;;;;5091929;28;20104;-68
2023/12/13 02:21:45;;;;;;;39.40;18.00;;;;;;;;;;5079404;28;20045;-69
2023/12/13 02:24:11;;;;;;;43.95;20.00;;;;;;;;;;5071311;28;20048;-69
2023/12/13 02:26:40;;;;;;;42.03;19.25;;;;;;;;;;5071389;28;20033;-69
2023/12/13 02:29:07;;;;;;;58.63;24.80;;;16.90;99.90;;;;;;5071906;28;20512;-68
2023/12/13 02:31:33;;;;;;;46.13;22.33;;;17.00;99.90;;;;;;5071491;28;20504;-68
2023/12/13 02:33:59;;;;;;;42.83;21.17;;;17.40;99.90;;;;;;5071364;28;20547;-68
2023/12/13 02:36:25;;;;;;;50.25;21.13;;;;;;;;;;5071507;28;20083;-69
2023/12/13 02:38:50;;;;;;;42.30;20.60;;;17.20;99.90;;;;;;5072688;28;20045;-68
2023/12/13 02:41:16;;;;;;;35.05;18.20;;;;;;;;;;5070995;28;20086;-68
2023/12/13 02:43:42;;;;;;;40.28;19.08;;;;;;;;;;5071265;28;20040;-68
2023/12/13 02:46:08;;;;;;;38.85;18.02;;;;;;;;;;5054660;28;20041;-68
2023/12/13 02:48:34;;;;;;;33.38;18.27;;;;;;;;;;5071454;28;20046;-68
2023/12/13 02:51:00;;;;;;;43.15;19.63;;;17.60;99.90;;;;;;5070957;28;20044;-68
2023/12/13 02:53:25;;;;;;;39.22;18.38;;;17.30;99.90;;;;;;5070941;28;20036;-68
2023/12/13 02:55:51;;;;;;;34.63;18.13;;;;;;;;;;5071151;28;20097;-69
2023/12/13 02:58:17;;;;;;;37.67;17.55;;;17.40;99.90;;;;;;5071021;28;20107;-68
2023/12/13 03:00:43;;;;;;;38.05;19.65;;;;;;;;;;5070642;28;20098;-68
2023/12/13 03:03:09;;;;;;;41.45;19.27;;;;;;;;;;5070783;28;20106;-68
2023/12/13 03:05:35;;;;;;;37.92;18.77;;;;;;;;;;5071053;28;20127;-68
2023/12/13 03:08:01;;;;;;;40.13;19.55;;;;;;;;;;5070857;28;20137;-68
2023/12/13 03:10:28;;;;;;;39.00;18.23;;;;;;;;;;5070624;28;20044;-69
2023/12/13 03:12:54;;;;;;;39.72;18.77;;;;;;;;;;5070770;28;20086;-68
2023/12/13 03:15:20;;;;;;;41.67;20.95;;;;;;;;;;5070517;28;20534;-69
2023/12/13 03:17:46;;;;;;;38.50;19.40;;;;;;;;;;5070684;28;20055;-68
2023/12/13 03:20:11;;;;;;;38.42;18.20;;;17.50;99.90;;;;;;5070568;28;20036;-68
2023/12/13 03:22:37;;;;;;;35.00;17.10;;;17.00;99.90;;;;;;5070937;28;20079;-68
2023/12/13 03:25:04;;;;;;;34.10;17.75;;;17.30;99.90;;;;;;5070134;28;20492;-69
2023/12/13 03:27:30;;;;;;;39.90;18.70;;;;;;;;;;5053902;28;20041;-68
2023/12/13 03:29:56;;;;;;;42.70;19.42;;;;;;;;;;5069925;28;20043;-68
2023/12/13 03:32:22;;;;;;;37.45;18.80;;;;;;;;;;5070475;28;20051;-68
2023/12/13 03:34:48;;;;;;;37.30;17.65;;;;;;;;;;5071191;28;20480;-68
2023/12/13 03:37:15;;;;;;;43.63;20.45;;;;;;;;;;5070341;28;20074;-68
2023/12/13 03:39:41;;;;;;;40.38;18.38;;;17.40;99.90;;;;;;5053326;28;20040;-67
2023/12/13 03:42:07;;;;;;;36.65;18.20;;;;;;;;;;5070337;28;20407;-68
2023/12/13 03:44:32;;;;;;;34.85;18.00;;;17.30;99.90;;;;;;5070186;28;20048;-69
2023/12/13 03:46:58;;;;;;;34.50;18.80;;;;;;;;;;5053643;28;20070;-68
2023/12/13 03:49:24;;;;;;;43.85;20.10;;;;;;;;;;5053410;28;20036;-68
2023/12/13 03:51:50;;;;;;;41.20;19.05;;;17.70;99.90;;;;;;5070301;28;20123;-69
2023/12/13 03:54:15;;;;;;;34.15;16.85;;;17.50;99.90;;;;;;5070072;28;20040;-68
2023/12/13 03:56:42;;;;;;;32.03;18.35;;;;;;;;;;5070582;28;20123;-69
2023/12/13 03:59:08;;;;;;;47.22;21.52;;;;;;;;;;5070451;28;20051;-69
2023/12/13 04:01:34;;;;;;;34.15;18.45;;;17.30;99.90;;;;;;5069843;28;20047;-69
2023/12/13 04:04:00;;;;;;;34.00;18.75;;;;;;;;;;5070185;28;20408;-68
2023/12/13 04:06:26;;;;;;;42.60;20.05;;;;;;;;;;5069869;28;20033;-68
2023/12/13 04:08:52;;;;;;;39.28;20.13;;;;;;;;;;5070041;28;20037;-68
2023/12/13 04:11:17;;;;;;;41.45;21.10;;;17.60;99.90;;;;;;5070010;28;20056;-68
2023/12/13 04:13:44;;;;;;;35.53;19.35;;;17.30;99.90;;;;;;5069934;28;20045;-68
2023/12/13 04:16:09;;;;;;;39.45;19.50;;;17.30;99.90;;;;;;5069886;28;20245;-69
2023/12/13 04:18:35;;;;;;;41.03;20.25;;;17.30;99.90;;;;;;5069981;28;20173;-68
2023/12/13 04:21:01;;;;;;;36.72;18.42;;;17.20;99.90;;;;;;5069571;28;20040;-68
2023/12/13 04:23:27;;;;;;;31.95;17.45;;;;;;;;;;5069850;28;20036;-68
2023/12/13 04:25:53;;;;;;;32.55;18.27;;;;;;;;;;5071064;28;20122;-68
2023/12/13 04:28:19;;;;;;;40.03;21.25;;;;;;;;;;5069716;28;20076;-69
2023/12/13 04:30:45;;;;;;;39.25;18.67;;;;;;;;;;5069847;28;20131;-68
2023/12/13 04:33:11;;;;;;;36.30;20.23;;;;;;;;;;5051750;28;20136;-69
2023/12/13 04:35:37;;;;;;;38.38;20.48;;;;;;;;;;5051986;28;20562;-68
2023/12/13 04:38:02;;;;;;;33.42;19.00;;;17.80;99.90;;;;;;5069704;28;20036;-69
2023/12/13 04:40:28;;;;;;;44.08;21.05;;;17.30;99.90;;;;;;5070228;28;20118;-69
2023/12/13 04:42:54;;;;;;;43.47;21.02;;;23.70;99.90;;;;;;5073254;28;20036;-68
2023/12/13 04:45:20;;;;;;;45.65;21.50;;;26.00;99.90;;;;;;5073362;28;20037;-68
2023/12/13 04:47:45;;;;;;;33.53;19.05;;;26.20;99.90;;;;;;5073512;28;20045;-68
2023/12/13 04:50:11;;;;;;;34.00;18.63;;;;;;;;;;5073121;28;20385;-68
2023/12/13 04:52:37;;;;;;;41.80;20.40;;;26.30;99.90;;;;;;5073465;28;20037;-69
2023/12/13 04:55:03;;;;;;;34.38;19.45;;;26.20;99.90;;;;;;5073150;28;20044;-68
2023/12/13 04:57:29;;;;;;;35.63;19.30;;;25.90;99.90;;;;;;5073313;28;20052;-68
2023/12/13 04:59:54;;;;;;;37.28;19.23;;;26.10;99.90;;;;;;5072928;28;20067;-69
2023/12/13 05:02:20;;;;;;;34.97;18.60;;;;;;;;;;5073199;28;20399;-69
2023/12/13 05:04:47;;;;;;;43.47;19.42;;;;;;;;;;5073167;28;20110;-68
2023/12/13 05:07:13;;;;;;;36.13;19.13;;;;;;;;;;5073089;28;20041;-68
2023/12/13 05:09:39;;;;;;;38.67;18.95;;;;;;;;;;5056299;28;20125;-69
2023/12/13 05:12:05;;;;;;;31.38;17.85;;;;;;;;;;5073301;28;20048;-69
2023/12/13 05:14:31;;;;;;;52.05;22.52;;;;;;;;;;5074262;28;20048;-68
2023/12/13 05:16:57;;;;;;;38.78;19.40;;;;;;;;;;5073148;28;20033;-68
2023/12/13 05:19:22;;;;;;;37.63;19.27;;;26.80;99.90;;;;;;5072956;28;20668;-67
2023/12/13 05:21:48;;;;;;;45.53;22.42;;;26.10;99.90;;;;;;5073028;28;20063;-69
2023/12/13 05:24:14;;;;;;;39.80;19.65;;;26.30;99.90;;;;;;5072936;28;20044;-68
2023/12/13 05:26:40;;;;;;;37.83;19.52;;;;;;;;;;5072838;28;20047;-68
2023/12/13 05:29:06;;;;;;;35.63;18.30;;;;;;;;;;5072959;28;20047;-68
2023/12/13 05:31:31;;;;;;;43.63;20.33;;;26.20;99.90;;;;;;5072788;28;20036;-68
2023/12/13 05:33:57;;;;;;;32.80;18.10;;;26.10;99.90;;;;;;5074287;28;20047;-69
2023/12/13 05:36:22;;;;;;;34.22;18.92;;;26.20;99.90;;;;;;5072995;28;20096;-69
2023/12/13 05:38:48;;;;;;;37.67;20.00;;;;;;;;;;5072820;28;20520;-69
2023/12/13 05:41:14;;;;;;;39.97;19.88;;;;;;;;;;5072355;28;20412;-69
2023/12/13 05:43:40;;;;;;;38.70;20.15;;;;;;;;;;5073993;28;20040;-68
2023/12/13 05:46:07;;;;;;;40.10;21.70;;;26.40;99.90;;;;;;5072614;28;20557;-68
2023/12/13 05:48:33;;;;;;;60.92;24.92;;;26.90;99.90;;;;;;5072587;28;20036;-68
2023/12/13 05:50:59;;;;;;;36.92;20.38;;;26.70;99.90;;;;;;5073192;28;20037;-69
2023/12/13 05:53:25;;;;;;;50.65;22.58;;;;;;;;;;5072123;28;20126;-69
2023/12/13 05:55:51;;;;;;;34.00;19.02;;;;;;;;;;5072120;28;20416;-68
2023/12/13 05:58:17;;;;;;;37.78;20.00;;;;;;;;;;5071241;28;20127;-68
2023/12/13 06:00:43;;;;;;;40.03;21.92;;;;;;;;;;5071761;28;20067;-69
2023/12/13 06:03:09;;;;;;;40.10;20.35;;;;;;;;;;5072149;28;20132;-69
2023/12/13 06:05:35;;;;;;;46.25;22.58;;;;;;;;;;5072023;28;20526;-68
2023/12/13 06:08:02;;;;;;;41.67;21.55;;;;;;;;;;5071680;28;20523;-68
2023/12/13 06:10:27;;;;;;;46.17;21.48;;;;;;;;;;5071398;28;20041;-69
2023/12/13 06:12:53;;;;;;;41.47;21.77;;;26.40;99.90;;;;;;5071002;28;20044;-68
2023/12/13 06:15:21;;;;;;;44.38;21.70;;;26.20;99.90;;;;;;5073211;28;20676;-68
2023/12/13 06:17:47;;;;;;;41.80;19.73;;;;;;;;;;5071883;28;20557;-68
2023/12/13 06:20:13;;;;;;;49.10;23.48;;;26.00;99.90;;;;;;5071556;28;20040;-68
2023/12/13 06:22:38;;;;;;;43.95;21.30;;;26.50;99.90;;;;;;5071788;28;20447;-69
2023/12/13 06:25:04;;;;;;;52.53;23.38;;;25.90;99.90;;;;;;5071413;28;20037;-69
2023/12/13 06:27:30;;;;;;;38.40;21.30;;;;;;;;;;5071460;28;20054;-68
2023/12/13 06:29:56;;;;;;;40.95;21.60;;;;;;;;;;5071396;28;20571;-68
2023/12/13 06:32:22;;;;;;;43.38;22.77;;;25.80;99.90;;;;;;5071954;28;20052;-69
2023/12/13 06:34:48;;;;;;;39.97;20.33;;;25.60;99.90;;;;;;5071473;28;20032;-69
2023/12/13 06:37:13;;;;;;;44.95;22.42;;;26.20;99.90;;;;;;5071510;28;20036;-68
2023/12/13 06:39:39;;;;;;;41.47;22.08;;;;;;;;;;5071308;28;20067;-68
2023/12/13 06:42:08;;;;;;;43.55;22.73;;;26.10;99.90;;;;;;5071361;28;20557;-69
2023/12/13 06:44:37;;;;;;;44.95;22.17;;;25.80;99.90;;;;;;5071275;28;20044;-69
2023/12/13 06:47:05;;;;;;;46.58;22.80;;;25.90;99.90;;;;;;5054595;28;20112;-69
2023/12/13 06:49:32;;;;;;;51.35;22.90;;;;;;;;;;5071089;28;20040;-68
2023/12/13 06:51:58;;;;;;;45.08;21.48;;;25.90;99.90;;;;;;5071173;28;20079;-69
2023/12/13 06:54:24;;;;;;;45.13;23.05;;;;;;;;;;5071137;28;20048;-68
2023/12/13 06:56:50;;;;;;;54.70;25.42;;;25.30;99.90;;;;;;5070570;28;20040;-68
2023/12/13 06:59:16;;;;;;;40.92;20.48;;;;;;;;;;5070607;28;20045;-69
2023/12/13 07:01:42;;;;;;;48.30;23.50;;;25.20;99.90;;;;;;5070427;28;20101;-69
2023/12/13 07:04:09;;;;;;;42.08;21.98;;;;;;;;;;5062521;28;20078;-68
2023/12/13 07:06:35;;;;;;;48.47;23.23;;;;;;;;;;5054639;28;20040;-68
2023/12/13 07:09:02;;;;;;;41.92;21.60;;;;;;;;;;5057073;28;20119;-68
2023/12/13 07:11:28;;;;;;;52.95;23.75;;;;;;;;;;5050767;28;20044;-68
2023/12/13 07:13:54;;;;;;;54.90;24.00;;;25.60;99.90;;;;;;5051438;28;20069;-68
2023/12/13 07:16:19;;;;;;;37.75;21.77;;;25.40;99.90;;;;;;5054647;28;20083;-69
2023/12/13 07:18:45;;;;;;;39.17;20.10;;;25.30;99.90;;;;;;5066328;28;20032;-67
2023/12/13 07:21:11;;;;;;;37.65;20.60;;;;;;;;;;5056637;28;20469;-68
2023/12/13 07:23:39;;;;;;;50.35;22.77;;;;;;;;;;5059972;28;20040;-69
2023/12/13 07:26:05;;;;;;;36.55;21.08;;;;;;;;;;5058201;28;20032;-68
2023/12/13 07:28:31;;;;;;;44.95;22.40;;;25.00;99.90;;;;;;5066504;28;20040;-67
2023/12/13 07:30:57;;;;;;;45.45;22.42;;;;;;;;;;5066795;28;20028;-68
2023/12/13 07:33:23;;;;;;;41.92;21.33;;;;;;;;;;5066935;28;20110;-69
2023/12/13 07:35:50;;;;;;;48.35;22.17;;;;;;;;;;5063025;28;20037;-69
2023/12/13 07:38:16;;;;;;;37.90;20.30;;;;;;;;;;5058205;28;20041;-68
2023/12/13 07:40:47;;;;;;;55.60;24.25;;;;;;;;;;5032020;28;20048;-69
2023/12/13 07:43:13;;;;;;;45.22;21.83;;;25.00;99.90;;;;;;5050759;28;20052;-68
2023/12/13 07:45:39;;;;;;;41.85;21.58;;;;;;;;;;5050132;28;20045;-69
2023/12/13 07:48:05;;;;;;;47.75;23.23;;;24.90;99.90;;;;;;5050346;28;20455;-68
2023/12/13 07:50:31;;;;;;;43.97;22.83;;;24.60;99.90;;;;;;5033601;28;20083;-68
2023/12/13 07:52:56;;;;;;;47.38;22.33;;;24.70;99.90;;;;;;5050334;28;20051;-67
2023/12/13 07:55:23;;;;;;;46.38;21.52;;;;;;;;;;5050099;28;20037;-69
2023/12/13 07:57:52;;;;;;;41.53;21.92;;;24.20;99.90;;;;;;5050124;28;20041;-69
2023/12/13 08:00:19;;;;;;;39.30;21.23;;;;;;;;;;5049955;28;20036;-68
2023/12/13 08:02:45;;;;;;;40.10;22.27;;;;;;;;;;5050303;28;20060;-69
2023/12/13 08:05:13;;;;;;;45.25;21.67;;;24.50;99.90;;;;;;5050023;28;20162;-69
2023/12/13 08:07:39;;;;;;;34.90;19.33;;;;;;;;;;5050371;28;20412;-68
2023/12/13 08:10:08;;;;;;;48.55;23.75;;;;;;;;;;5049995;28;20037;-69
2023/12/13 08:12:34;;;;;;;46.60;22.88;;;24.30;99.90;;;;;;5050128;28;20033;-68
2023/12/13 08:15:01;;;;;;;41.60;22.92;;;24.10;99.90;;;;;;5050406;28;20094;-68
2023/12/13 08:17:27;;;;;;;47.05;22.73;;;;;;;;;;5054508;28;20056;-70
2023/12/13 08:19:54;;;;;;;46.67;23.13;;;;;;;;;;5053953;28;20517;-69
2023/12/13 08:22:20;;;;;;;52.30;25.30;;;;;;;;;;5054164;28;20047;-68
2023/12/13 08:24:46;;;;;;;50.65;25.00;;;;;;;;;;5053967;28;20044;-68
2023/12/13 08:27:12;;;;;;;52.30;23.50;;;;;;;;;;5054132;28;20083;-68
2023/12/13 08:29:38;;;;;;;44.58;23.55;;;;;;;;;;5053745;28;20068;-69
2023/12/13 08:32:04;;;;;;;51.58;25.73;;;23.40;99.90;;;;;;5053929;28;20481;-69
2023/12/13 08:34:29;;;;;;;41.42;22.65;;;23.40;99.90;;;;;;5054158;28;20036;-68
2023/12/13 08:36:55;;;;;;;47.28;23.60;;;23.90;99.90;;;;;;5053942;28;20039;-69
2023/12/13 08:39:21;;;;;;;42.60;23.65;;;23.60;99.90;;;;;;5053859;28;20090;-69
2023/12/13 08:41:47;;;;;;;53.25;24.90;;;23.40;99.90;;;;;;5053630;28;20045;-69
2023/12/13 08:44:13;;;;;;;43.70;23.58;;;23.20;99.90;;;;;;5054896;28;20044;-69
2023/12/13 08:46:39;;;;;;;48.58;25.55;;;;;;;;;;5053855;28;20044;-69
2023/12/13 08:49:05;;;;;;;49.22;24.20;;;;;;;;;;5053749;28;20068;-69
2023/12/13 08:51:31;;;;;;;50.88;25.40;;;;;;;;;;5057220;28;20040;-70
2023/12/13 08:53:57;;;;;;;53.83;25.77;;;;;;;;;;5074507;28;20517;-70
2023/12/13 08:56:23;;;;;;;50.78;24.70;;;;;;;;;;5074846;28;20040;-68
2023/12/13 08:58:49;;;;;;;44.65;23.42;;;;;;;;;;5073418;28;20040;-69
2023/12/13 09:01:14;;;;;;;50.83;24.98;;;23.50;99.90;;;;;;5073080;28;20101;-69
2023/12/13 09:03:40;;;;;;;43.72;24.75;;;23.20;99.90;;;;;;5073421;28;20037;-69
2023/12/13 09:06:06;;;;;;;44.13;24.00;;;23.30;99.90;;;;;;5073114;28;20048;-69
2023/12/13 09:08:32;;;;;;;47.72;23.80;;;22.60;99.90;;;;;;5073092;28;20127;-70
2023/12/13 09:10:58;;;;;;;47.00;24.75;;;22.60;99.90;;;;;;5073148;28;20047;-69
2023/12/13 09:13:25;;;;;;;44.85;24.27;;;;;;;;;;5073256;28;20040;-70
2023/12/13 09:15:51;;;;;;;46.47;24.55;;;22.30;99.90;;;;;;5074320;28;20499;-70
2023/12/13 09:18:18;;;;;;;50.75;24.83;;;;;;;;;;5073448;28;20047;-69
2023/12/13 09:20:45;;;;;;;54.47;26.85;;;22.00;99.90;;;;;;5056297;28;20563;-70
2023/12/13 09:23:20;;;;;;;55.33;26.15;;;;;;;;;;5073022;28;20047;-69
2023/12/13 09:25:47;;;;;;;43.22;23.15;;;;;;;;;;5072449;28;20047;-70
2023/12/13 09:28:13;;;;;;;51.55;26.42;;;;;;;;;;5072629;28;20048;-69
2023/12/13 09:30:39;;;;;;;52.13;27.17;;;;;;;;;;5072446;28;20040;-70
2023/12/13 09:33:05;;;;;;;50.28;25.50;;;;;;;;;;5095878;22;20040;-69
2023/12/13 09:35:32;;;;;;;48.35;23.83;;;;;;;;;;5072662;28;20459;-70
2023/12/13 09:37:58;;;;;;;46.67;25.23;;;;;;;;;;5069087;28;20048;-70
2023/12/13 09:40:24;;;;;;;53.10;25.42;;;;;;;;;;5050361;28;20090;-69
2023/12/13 09:42:51;;;;;;;50.90;26.00;;;;;;;;;;5073675;28;20403;-70
2023/12/13 09:45:20;;;;;;;47.13;26.52;;;;;;;;;;5092752;28;20438;-70
2023/12/13 09:47:49;;;;;;;43.15;24.65;;;;;;;;;;5109414;28;20522;-70
2023/12/13 09:50:15;;;;;;;60.42;27.75;;;;;;;;;;5112799;28;20046;-69
2023/12/13 09:52:41;;;;;;;53.28;28.10;;;;;;;;;;5112814;28;20065;-72
2023/12/13 09:55:08;;;;;;;51.38;26.20;;;;;;;;;;5113144;28;20403;-71
2023/12/13 09:57:34;;;;;;;45.47;25.83;;;;;;;;;;5095914;28;20039;-72
2023/12/13 10:00:00;;;;;;;44.80;24.42;;;;;;;;;;5095237;28;20047;-69
2023/12/13 10:02:26;;;;;;;52.95;26.42;;;;;;;;;;5092707;28;20157;-69
2023/12/13 10:04:53;;;;;;;47.85;25.33;;;;;;;;;;5081625;28;20502;-70
2023/12/13 10:07:19;;;;;;;51.17;26.60;;;;;;;;;;5071988;28;20041;-69
2023/12/13 10:09:45;;;;;;;56.47;28.63;;;;;;;;;;5075760;28;20504;-72
2023/12/13 10:12:12;;;;;;;46.97;26.02;;;;;;;;;;5099410;28;20044;-72
2023/12/13 10:14:38;;;;;;;56.28;27.75;;;;;;;;;;5072048;28;20032;-70
2023/12/13 10:17:05;;;;;;;66.35;31.02;;;;;;;;;;5072233;28;20399;-69
2023/12/13 10:19:32;;;;;;;52.53;27.00;;;;;;;;;;5055052;28;20086;-70
2023/12/13 10:21:59;;;;;;;50.28;26.48;;;;;;;;;;5078286;28;20076;-71
2023/12/13 10:24:25;;;;;;;44.28;24.58;;;;;;;;;;5065828;28;20041;-70
2023/12/13 10:26:51;;;;;;;59.70;26.55;;;;;;;;;;5075272;28;20502;-70
2023/12/13 10:29:20;;;;;;;46.00;25.90;;;;;;;;;;5091657;28;20102;-69
2023/12/13 10:31:46;;;;;;;48.95;27.27;;;;;;;;;;5091282;28;20127;-71
2023/12/13 10:34:12;;;;;;;59.10;27.30;;;;;;;;;;5074515;28;20478;-71
2023/12/13 10:36:39;;;;;;;50.88;27.08;;;;;;;;;;5091970;28;20072;-71
2023/12/13 10:39:07;;;;;;;57.05;25.38;;;;;;;;;;5077457;28;20040;-71
2023/12/13 10:41:36;;;;;;;54.25;26.67;;;;;;;;;;5054571;28;20075;-71
2023/12/13 10:44:03;;;;;;;47.53;25.13;;;;;;;;;;5071134;28;20044;-70
2023/12/13 10:46:34;;;;;;;46.70;25.77;;;;;;;;;;5070740;28;20036;-71
2023/12/13 10:49:03;;;;;;;53.78;26.90;;;;;;;;;;5076769;28;20130;-71
2023/12/13 10:51:31;;;;;;;60.85;27.08;;;;;;;;;;5079270;28;20098;-71
2023/12/13 10:53:58;;;;;;;49.60;26.67;;;;;;;;;;5073524;28;20045;-71
2023/12/13 10:56:24;;;;;;;53.60;25.13;;;;;;;;;;5083752;28;20047;-71
2023/12/13 10:58:51;;;;;;;48.83;25.90;;;;;;;;;;5083966;28;20036;-71
2023/12/13 11:01:17;;;;;;;53.22;28.02;;;;;;;;;;5080233;28;20036;-71
2023/12/13 11:03:51;;;;;;;57.92;27.58;;;19.10;99.90;;;;;;5080368;28;20105;-72
2023/12/13 11:06:17;;;;;;;60.45;27.70;;;19.10;99.90;;;;;;5064945;28;20047;-72
2023/12/13 11:08:44;;;;;;;51.92;25.42;;;19.30;99.90;;;;;;5062183;28;20112;-71
2023/12/13 11:11:13;;;;;;;51.28;24.20;;;19.10;99.90;;;;;;5054091;28;20048;-72
2023/12/13 11:13:46;;;;;;;56.60;27.02;;;18.90;99.80;;;;;;5070979;28;20411;-71
2023/12/13 11:16:12;;;;;;;;;;;;;;;;;;5071635;28;20057;-71
2023/12/13 11:18:38;;;;;;;53.78;27.77;;;;;;;;;;5073295;28;19916;-71
2023/12/13 11:21:05;;;;;;;53.05;26.02;;;19.00;99.90;;;;;;5080413;28;20051;-71
2023/12/13 11:23:32;;;;;;;52.47;25.95;;;;;;;;;;5070483;28;20456;-71
2023/12/13 11:25:58;;;;;;;58.22;26.38;;;;;;;;;;5054073;28;20581;-69
2023/12/13 11:28:25;;;;;;;48.78;25.80;;;19.50;98.60;;;;;;5054047;28;20037;-71
2023/12/13 11:30:54;;;;;;;52.65;28.17;;;19.00;97.80;;;;;;5070475;28;20110;-71
2023/12/13 11:33:22;;;;;;;50.95;25.67;;;;;;;;;;5054651;28;20051;-68
2023/12/13 11:35:49;;;;;;;54.08;26.50;;;19.40;93.50;;;;;;5066878;28;20106;-71
2023/12/13 11:38:16;;;;;;;47.47;25.90;;;;;;;;;;5070251;28;20040;-69
2023/12/13 11:40:42;;;;;;;53.47;25.33;;;;;;;;;;5078952;28;20044;-70
2023/12/13 11:43:08;;;;;;;52.60;24.67;;;;;;;;;;5076080;28;20412;-70
2023/12/13 11:45:34;;;;;;;51.88;25.60;;;;;;;;;;5083889;28;20032;-70
2023/12/13 11:48:01;;;;;;;55.35;27.48;;;;;;;;;;5082113;28;20051;-69
2023/12/13 11:50:26;;;;;;;52.03;26.08;;;19.40;90.90;;;;;;5066139;28;20671;-69
2023/12/13 11:52:52;;;;;;;59.72;27.35;;;19.80;91.10;;;;;;5073549;28;20043;-70
2023/12/13 11:55:21;;;;;;;61.45;28.58;;;;;;;;;;5070339;28;20068;-71
2023/12/13 11:57:49;;;;;;;56.47;27.98;;;;;;;;;;5086122;28;20127;-70
2023/12/13 12:00:19;;;;;;;56.97;27.75;;;;;;;;;;5078028;28;20400;-70
2023/12/13 12:02:45;;;;;;;65.15;28.08;;;;;;;;;;5065563;28;20064;-70
2023/12/13 12:05:15;;;;;;;60.58;28.63;;;;;;;;;;5065735;28;20040;-70
2023/12/13 12:07:41;;;;;;;62.03;29.60;;;;;;;;;;5066586;28;20047;-70
2023/12/13 12:10:08;;;;;;;59.83;28.55;;;;;;;;;;5069638;28;20036;-70
2023/12/13 12:12:36;;;;;;;74.45;29.95;;;;;;;;;;5080751;28;20770;-70
2023/12/13 12:15:06;;;;;;;63.08;29.63;;;;;;;;;;5066381;28;20055;-70
2023/12/13 12:17:32;;;;;;;71.15;32.40;;;;;;;;;;5052214;28;20179;-70
2023/12/13 12:20:03;;;;;;;63.67;27.55;;;;;;;;;;5065981;28;20550;-70
2023/12/13 12:22:33;;;;;;;62.08;28.92;;;;;;;;;;5049696;28;20101;-70
2023/12/13 12:24:59;;;;;;;66.93;29.17;;;20.00;84.90;;;;;;5068885;28;20045;-71
2023/12/13 12:27:26;;;;;;;69.72;30.58;;;;;;;;;;5071413;28;20774;-70
2023/12/13 12:29:52;;;;;;;66.68;28.75;;;19.50;83.40;;;;;;5066097;28;20471;-70
2023/12/13 12:32:18;;;;;;;72.78;29.50;;;;;;;;;;5066248;28;20104;-71
2023/12/13 12:34:50;;;;;;;76.07;30.50;;;19.80;77.90;;;;;;5066178;28;20151;-71
2023/12/13 12:37:16;;;;;;;63.85;27.27;;;;;;;;;;5070905;28;20055;-71
2023/12/13 12:39:42;;;;;;;72.15;29.30;;;;;;;;;;5074946;28;20083;-72
2023/12/13 12:42:08;;;;;;;63.97;27.45;;;;;;;;;;5084978;28;20083;-70
2023/12/13 12:44:35;;;;;;;62.72;28.92;;;20.00;85.90;;;;;;5086854;28;20040;-71
2023/12/13 12:47:01;;;;;;;50.28;25.75;;;;;;;;;;5083136;28;20388;-70
2023/12/13 12:49:27;;;;;;;67.45;26.85;;;19.90;80.50;;;;;;5089622;28;20460;-70
2023/12/13 12:51:53;;;;;;;56.97;25.80;;;;;;;;;;5089830;28;20071;-70
2023/12/13 12:54:19;;;;;;;54.67;25.35;;;;;;;;;;5089834;28;20063;-72
2023/12/13 12:56:45;;;;;;;44.50;23.77;;;;;;;;;;5085177;28;20047;-71
2023/12/13 12:59:16;;;;;;;53.90;24.90;;;26.50;84.50;;;;;;5097809;28;20039;-70
2023/12/13 13:01:43;;;;;;;51.33;23.85;;;;;;;;;;5093945;28;20043;-70
2023/12/13 13:04:14;;;;;;;51.53;23.70;;;26.90;87.50;;;;;;5113876;28;20035;-72
2023/12/13 13:06:45;;;;;;;55.08;26.67;;;;;;;;;;5081186;28;20038;-72
2023/12/13 13:09:12;;;;;;;57.33;26.70;;;;;;;;;;5073542;28;20047;-72
2023/12/13 13:11:38;;;;;;;58.25;26.75;;;;;;;;;;5074625;28;20040;-72
2023/12/13 13:14:04;;;;;;;55.72;25.30;;;;;;;;;;5056346;28;20143;-70
2023/12/13 13:16:31;;;;;;;54.88;25.40;;;26.40;88.10;;;;;;5073015;28;20041;-72
2023/12/13 13:18:57;;;;;;;54.83;27.10;;;26.80;90.90;;;;;;5073195;28;20403;-70
2023/12/13 13:21:23;;;;;;;61.85;28.42;;;26.30;90.70;;;;;;5072894;28;20040;-72
2023/12/13 13:23:48;;;;;;;61.38;29.63;;;26.70;90.40;;;;;;5073226;28;20091;-70
2023/12/13 13:26:14;;;;;;;61.65;28.77;;;;;;;;;;5072850;28;20033;-71
2023/12/13 13:28:41;;;;;;;68.85;29.50;;;;;;;;;;5072732;28;20068;-72
2023/12/13 13:31:07;;;;;;;62.85;28.80;;;;;;;;;;5072494;28;20046;-70
2023/12/13 13:33:33;;;;;;;57.78;27.50;;;;;;;;;;5072785;28;20052;-71
2023/12/13 13:35:58;;;;;;;57.92;27.15;;;27.00;91.50;;;;;;5072753;28;20543;-71
2023/12/13 13:38:24;;;;;;;71.30;29.17;;;26.40;91.30;;;;;;5072711;28;20036;-71